Aeroporto :
LOGIN :

Iscrizione | Disclaimer

   EN    FR    IT 

 










Sommario :    VFR   VFR Marginale   IFR   IFR Intensivo   IFR Molto Intensivo
Visibilità : 
Base nubi : 
>= 8 km
>= 3000ft
5 / 8 km
1000 / 3000 ft
1500m / 5 km
500 / 1000 ft
800 / 1500m
200 / 500 ft
< 800m
< 200 ft
Simboli :   Temporali  Nebbia  Neve Forte  Precipitazioni Forti  Vento > 20 kt
SIGMETs :   Varie  Temporali  Ghiacco  Turbolenza  Onda orograficha  Ceneri Vulcaniche







- Altitudine del aeroporto : 90 ft
- Codice IATA : NTE
- Carte del aeroporto


LFRS - Nantes

ULTIMO METAR :
  • 191200Z AUTO VRB03KT 9999 SCT025 24/18 Q1025 NOSIG

METARs OBSOLETI :
  • 191130Z AUTO 05003KT 330V110 9999 BKN021 23/17 Q1025 NOSIG
  • 191100Z AUTO VRB03KT 9999 SCT016 23/18 Q1025 NOSIG
  • 191030Z AUTO VRB04KT 9999 BKN012 22/18 Q1026 BECMG BKN025
  • 191000Z AUTO VRB04KT 9999 OVC009 20/17 Q1026 BECMG BKN015
  • 190930Z AUTO 04004KT 350V090 9999 OVC006 19/18 Q1026 BECMG BKN015

TAF TAF LFRS
Valido dal 19 a 12 ore il 20 a 18 ore UTC


191100Z 1912/2018 04005KT 9999 BKN025
BECMG 1920/1922 CAVOK
TEMPO 2003/2007 3000 BR BKN003
ATIS : +33 2 40 05 12 74
Nessun NOTAM noto per questo aeroporto.



MetMap, La meteo Aeronautica in un colpo d'occhio ! - Copyright ORBIFLY Dicembre 2007 - Disclaimer

ORBIFLY MET'MAP TEAM :

Programmazione e sviluppo : Alexandra Zaïnal
Concezione e sviluppo : Baudouin d'Aumeries
Co-Programmazione e sviluppo : Marc-Olivier Méhu
Supporto tecnico e logistico : Manuel Goepfert
Aiuto per la traduzione : Arnaldo La Scala

Contatto : metmap@orbifly.com




FONTI E CREDITI :

   NOAA